createdAt,value
2022-10-15T00:02:50.486Z,134.43
2022-10-15T00:05:54.854Z,132.60
2022-10-15T00:08:59.209Z,192.25
2022-10-15T00:12:04.043Z,166.68
2022-10-15T00:15:10.142Z,184.70
2022-10-15T00:18:14.608Z,191.60
2022-10-15T00:21:21.410Z,231.70
2022-10-15T00:24:26.176Z,213.25
2022-10-15T00:27:30.347Z,231.85
2022-10-15T00:33:39.697Z,191.45
2022-10-15T00:36:44.313Z,244.60
2022-10-15T00:39:49.146Z,236.35
2022-10-15T00:42:53.853Z,196.82
2022-10-15T00:45:58.811Z,200.65
2022-10-15T00:49:26.956Z,201.88
2022-10-15T00:53:09.763Z,275.10
2022-10-15T00:56:18.456Z,320.85
2022-10-15T00:59:27.290Z,295.65
2022-10-15T01:02:31.984Z,372.77
2022-10-15T01:05:38.635Z,322.08
2022-10-15T01:08:43.561Z,377.17
2022-10-15T01:11:51.726Z,334.85
2022-10-15T01:15:38.854Z,402.20
2022-10-15T01:18:52.406Z,350.25
2022-10-15T01:22:11.071Z,349.65
2022-10-15T01:25:40.634Z,320.48
2022-10-15T01:29:13.267Z,359.63
2022-10-15T01:32:27.698Z,383.00
2022-10-15T01:35:49.739Z,441.05
2022-10-15T01:39:02.112Z,336.92
2022-10-15T01:42:13.241Z,381.33
2022-10-15T01:45:28.171Z,425.05
2022-10-15T01:48:35.430Z,431.20
2022-10-15T01:51:43.171Z,392.10
2022-10-15T01:54:50.117Z,417.17
2022-10-15T01:57:58.605Z,332.33
2022-10-15T02:01:03.630Z,432.80
2022-10-15T02:04:19.710Z,394.25
2022-10-15T02:08:02.876Z,370.48
2022-10-15T02:11:15.918Z,395.70
2022-10-15T02:14:42.632Z,393.30
2022-10-15T02:18:06.087Z,316.50
2022-10-15T02:21:28.614Z,312.88
2022-10-15T02:24:44.131Z,426.73
2022-10-15T02:27:51.026Z,452.98
2022-10-15T02:30:58.498Z,472.55
2022-10-15T02:34:08.059Z,404.33
2022-10-15T02:37:13.855Z,488.80
2022-10-15T02:40:18.982Z,411.40
2022-10-15T02:43:23.312Z,398.35
2022-10-15T02:46:27.860Z,444.80
2022-10-15T02:49:32.428Z,403.23
2022-10-15T02:52:36.779Z,320.27
2022-10-15T02:55:41.273Z,408.90
2022-10-15T02:58:45.659Z,443.45
2022-10-15T03:01:49.986Z,430.88
2022-10-15T03:04:54.355Z,325.23
2022-10-15T03:08:00.583Z,416.23
2022-10-15T03:11:04.673Z,357.15
2022-10-15T03:14:08.689Z,462.52
2022-10-15T03:17:13.231Z,466.20
2022-10-15T03:20:18.209Z,412.95
2022-10-15T03:23:23.762Z,403.30
2022-10-15T03:26:28.714Z,306.10
2022-10-15T03:29:33.035Z,394.48
2022-10-15T03:32:37.575Z,316.70
2022-10-15T03:35:41.998Z,429.52
2022-10-15T03:38:46.159Z,309.42
2022-10-15T03:41:53.906Z,365.95
2022-10-15T03:44:58.541Z,368.42
2022-10-15T03:48:03.409Z,353.92
2022-10-15T03:51:07.838Z,391.27
2022-10-15T03:57:15.936Z,418.52
2022-10-15T04:00:20.555Z,361.38
2022-10-15T04:03:24.807Z,389.48
2022-10-15T04:06:28.787Z,406.23
2022-10-15T04:12:37.365Z,410.77
2022-10-15T04:15:41.541Z,449.75
2022-10-15T04:18:46.006Z,456.75
2022-10-15T04:21:50.154Z,432.73
2022-10-15T04:24:54.394Z,402.27
2022-10-15T04:27:58.915Z,423.40
2022-10-15T04:31:03.595Z,377.65
2022-10-15T04:34:08.764Z,430.67
2022-10-15T04:37:13.288Z,443.02
2022-10-15T04:40:18.727Z,483.75
2022-10-15T04:43:23.121Z,465.80
2022-10-15T04:46:27.684Z,500.42
2022-10-15T04:49:32.206Z,521.58
2022-10-15T04:52:36.585Z,546.20
2022-10-15T04:55:40.459Z,491.92
2022-10-15T04:58:48.245Z,530.83
2022-10-15T05:01:52.414Z,471.63
2022-10-15T05:04:56.632Z,497.70
2022-10-15T05:08:03.464Z,545.60
2022-10-15T05:11:18.263Z,514.70
2022-10-15T05:14:23.289Z,433.33
2022-10-15T05:17:27.897Z,453.05
2022-10-15T05:20:32.570Z,529.90
2022-10-15T05:23:37.928Z,549.38
2022-10-15T05:26:42.424Z,471.40
2022-10-15T05:29:46.603Z,547.00
2022-10-15T05:32:55.192Z,529.47
2022-10-15T05:36:19.305Z,415.73
2022-10-15T05:39:23.931Z,542.22
2022-10-15T05:42:28.446Z,544.20
2022-10-15T05:45:32.582Z,570.53
2022-10-15T05:48:36.911Z,556.50
2022-10-15T05:51:41.226Z,568.50
2022-10-15T05:54:45.606Z,551.00
2022-10-15T05:57:50.271Z,504.67
2022-10-15T06:00:59.539Z,563.80
2022-10-15T06:04:04.796Z,539.45
2022-10-15T06:07:09.633Z,508.70
2022-10-15T06:10:14.647Z,487.42
2022-10-15T06:13:19.285Z,510.58
2022-10-15T06:19:29.048Z,528.13
2022-10-15T06:22:34.238Z,512.00
2022-10-15T06:25:39.483Z,454.27
2022-10-15T06:28:43.726Z,527.08
2022-10-15T06:34:51.827Z,430.10
2022-10-15T06:38:02.898Z,457.05
2022-10-15T06:41:08.098Z,434.00
2022-10-15T06:44:12.425Z,519.50
2022-10-15T06:47:17.043Z,490.23
2022-10-15T06:50:21.434Z,545.15
2022-10-15T06:53:25.927Z,516.80
2022-10-15T07:02:44.748Z,593.47
2022-10-15T07:05:49.027Z,546.33
2022-10-15T07:08:53.540Z,576.22
2022-10-15T07:11:57.880Z,558.92
2022-10-15T07:18:06.113Z,563.55
2022-10-15T07:24:15.942Z,593.42
2022-10-15T07:30:28.956Z,612.33
2022-10-15T07:33:34.646Z,594.83
2022-10-15T07:36:39.617Z,563.47
2022-10-15T07:39:43.847Z,512.08
2022-10-15T07:42:59.669Z,505.95
2022-10-15T07:46:05.021Z,561.83
2022-10-15T07:49:11.275Z,532.50
2022-10-15T07:52:15.912Z,563.90
2022-10-15T07:55:20.274Z,442.13
2022-10-15T07:58:24.526Z,503.27
2022-10-15T08:01:29.155Z,488.13
2022-10-15T08:04:35.083Z,462.45
2022-10-15T08:07:41.874Z,505.55
2022-10-15T08:10:47.961Z,501.55
2022-10-15T08:13:53.266Z,516.20
2022-10-15T08:16:57.524Z,508.83
2022-10-15T08:23:13.660Z,444.40
2022-10-15T08:26:18.268Z,451.45
2022-10-15T08:29:22.697Z,476.67
2022-10-15T08:32:27.062Z,450.58
2022-10-15T08:35:35.328Z,458.83
2022-10-15T08:38:39.613Z,471.08
2022-10-15T08:41:59.471Z,452.23
2022-10-15T08:45:13.105Z,441.30
2022-10-15T08:48:38.310Z,468.00
2022-10-15T08:51:52.628Z,415.88
2022-10-15T08:54:58.972Z,443.20
2022-10-15T08:58:17.414Z,419.45
2022-10-15T09:01:45.670Z,401.88
2022-10-15T09:05:01.932Z,395.08
2022-10-15T09:08:08.731Z,388.77
2022-10-15T09:11:46.791Z,405.73
2022-10-15T09:14:52.515Z,353.40
2022-10-15T09:17:57.902Z,384.58
2022-10-15T09:21:05.725Z,373.83
2022-10-15T09:24:14.668Z,352.42
2022-10-15T09:27:38.318Z,360.90
2022-10-15T09:30:53.053Z,336.60
2022-10-15T09:38:13.228Z,333.00
2022-10-15T09:42:00.323Z,323.85
2022-10-15T09:45:11.442Z,327.75
2022-10-15T09:48:19.628Z,335.70
2022-10-15T09:55:32.941Z,325.67
2022-10-15T09:58:57.456Z,293.33
2022-10-15T10:05:38.970Z,279.83
2022-10-15T10:08:55.661Z,269.25
2022-10-15T10:12:04.890Z,265.65
2022-10-15T10:15:41.508Z,249.45
2022-10-15T10:19:20.192Z,252.13
2022-10-15T10:22:24.966Z,229.38
2022-10-15T10:25:39.293Z,234.23
2022-10-15T10:28:56.897Z,217.23
2022-10-15T10:32:22.391Z,203.05
2022-10-15T10:35:46.111Z,188.18
2022-10-15T10:39:14.026Z,196.65
2022-10-15T10:42:18.525Z,176.30
2022-10-15T10:45:27.582Z,165.80
2022-10-15T10:48:46.456Z,164.10
2022-10-15T10:51:51.187Z,150.55
2022-10-15T10:55:16.406Z,144.38
2022-10-15T10:58:26.977Z,130.93
2022-10-15T11:01:31.834Z,119.32
2022-10-15T11:04:38.563Z,120.40
2022-10-15T11:08:00.225Z,111.07
2022-10-15T11:11:33.738Z,108.93
2022-10-15T11:14:57.666Z,96.15
2022-10-15T11:18:26.396Z,96.95
2022-10-15T11:21:46.678Z,88.10
2022-10-15T11:25:11.409Z,83.88
2022-10-15T11:29:04.441Z,85.30
2022-10-15T11:33:06.728Z,75.68
2022-10-15T11:36:59.917Z,67.43
2022-10-15T11:40:51.925Z,63.50
2022-10-15T11:44:58.744Z,64.40
2022-10-15T11:48:43.845Z,60.65
2022-10-15T11:52:26.296Z,58.45
2022-10-15T11:55:49.587Z,61.38
2022-10-15T11:59:22.067Z,64.55
2022-10-15T12:02:33.494Z,64.60
2022-10-15T12:05:46.356Z,49.95
2022-10-15T12:08:54.279Z,44.78
2022-10-15T12:12:48.305Z,41.45
2022-10-15T12:16:18.752Z,45.35
2022-10-15T12:20:02.330Z,37.15
2022-10-15T12:23:26.332Z,43.95
2022-10-15T12:26:35.711Z,40.17
2022-10-15T12:29:40.335Z,36.33
2022-10-15T12:32:47.706Z,29.98
2022-10-15T12:36:09.432Z,34.17
2022-10-15T12:39:47.759Z,28.77
2022-10-15T12:42:59.800Z,30.38
2022-10-15T12:46:08.411Z,28.15
2022-10-15T12:49:41.724Z,27.35
2022-10-15T12:53:13.573Z,28.13
2022-10-15T12:56:17.920Z,22.73
2022-10-15T12:59:56.421Z,28.88
2022-10-15T13:03:19.521Z,27.73
2022-10-15T13:06:37.908Z,28.45
2022-10-15T13:09:42.305Z,27.65
2022-10-15T13:12:59.098Z,26.48
2022-10-15T13:16:09.566Z,27.40
2022-10-15T13:19:38.204Z,29.52
2022-10-15T13:22:43.254Z,23.40
2022-10-15T13:25:50.396Z,25.08
2022-10-15T13:28:59.968Z,26.35
2022-10-15T13:32:13.304Z,24.35
2022-10-15T13:35:39.834Z,30.15
2022-10-15T13:38:47.332Z,22.60
2022-10-15T13:41:53.543Z,26.05
2022-10-15T13:45:22.612Z,30.17
2022-10-15T13:48:30.729Z,24.90
2022-10-15T13:51:42.024Z,24.92
2022-10-15T13:54:47.168Z,32.65
2022-10-15T13:58:03.351Z,27.63
2022-10-15T14:01:18.692Z,29.55
2022-10-15T14:04:28.334Z,33.05
2022-10-15T14:07:33.160Z,30.60
2022-10-15T14:10:37.636Z,34.60
2022-10-15T14:13:55.158Z,34.50
2022-10-15T14:17:06.184Z,37.83
2022-10-15T14:20:28.670Z,40.13
2022-10-15T14:23:33.157Z,39.13
2022-10-15T14:26:40.709Z,41.63
2022-10-15T14:29:47.084Z,41.08
2022-10-15T14:32:52.752Z,36.45
2022-10-15T14:36:13.057Z,39.50
2022-10-15T14:39:34.601Z,35.22
2022-10-15T14:43:02.627Z,37.80
2022-10-15T14:46:16.962Z,38.63
2022-10-15T14:49:27.588Z,38.17
2022-10-15T14:55:47.865Z,35.95
2022-10-15T14:58:56.793Z,35.22
2022-10-15T15:02:04.044Z,41.70
2022-10-15T15:05:22.251Z,34.58
2022-10-15T15:08:30.651Z,36.42
2022-10-15T15:11:36.286Z,34.60
2022-10-15T15:14:45.389Z,29.95
2022-10-15T15:18:01.748Z,34.92
2022-10-15T15:21:13.887Z,33.92
2022-10-15T15:24:19.733Z,37.10
2022-10-15T15:27:31.019Z,36.90
2022-10-15T15:30:42.923Z,40.15
2022-10-15T15:34:03.217Z,37.63
2022-10-15T15:37:18.924Z,40.30
2022-10-15T15:40:24.761Z,48.15
2022-10-15T15:43:29.663Z,44.33
2022-10-15T15:46:34.064Z,54.97
2022-10-15T15:49:39.648Z,54.60
2022-10-15T15:52:44.272Z,48.38
2022-10-15T15:55:51.084Z,60.17
2022-10-15T15:58:58.255Z,62.05
2022-10-15T16:02:08.376Z,54.45
2022-10-15T16:05:17.321Z,49.97
2022-10-15T16:08:24.905Z,58.08
2022-10-15T16:11:29.367Z,64.20
2022-10-15T16:14:33.574Z,57.97
2022-10-15T16:17:42.138Z,57.17
2022-10-15T16:20:50.603Z,50.22
2022-10-15T16:23:58.109Z,55.40
2022-10-15T16:27:02.533Z,54.67
2022-10-15T16:30:07.698Z,64.75
2022-10-15T16:33:14.445Z,53.75
2022-10-15T16:36:19.351Z,63.33
2022-10-15T16:39:23.792Z,74.72
2022-10-15T16:42:28.425Z,78.97
2022-10-15T16:45:33.687Z,73.25
2022-10-15T16:48:41.271Z,81.95
2022-10-15T16:51:48.184Z,73.72
2022-10-15T16:54:54.010Z,78.15
2022-10-15T16:58:02.253Z,85.93
2022-10-15T17:01:20.700Z,95.85
2022-10-15T17:04:25.363Z,97.97
2022-10-15T17:07:31.756Z,95.25
2022-10-15T17:10:43.085Z,94.15
2022-10-15T17:13:49.507Z,103.82
2022-10-15T17:16:54.130Z,101.55
2022-10-15T17:20:01.088Z,97.93
2022-10-15T17:23:06.808Z,100.80
2022-10-15T17:26:23.166Z,97.28
2022-10-15T17:29:32.438Z,115.38
2022-10-15T17:32:47.090Z,108.72
2022-10-15T17:35:57.300Z,118.93
2022-10-15T17:39:02.473Z,107.95
2022-10-15T17:42:07.439Z,103.43
2022-10-15T17:45:12.376Z,101.22
2022-10-15T17:48:17.162Z,108.30
2022-10-15T17:51:26.204Z,121.35
2022-10-15T17:54:30.786Z,104.63
2022-10-15T17:57:35.946Z,109.85
2022-10-15T18:00:40.665Z,131.88
2022-10-15T18:03:45.275Z,107.13
2022-10-15T18:06:52.482Z,109.47
2022-10-15T18:09:57.154Z,119.35
2022-10-15T18:13:01.454Z,108.47
2022-10-15T18:16:06.341Z,110.45
2022-10-15T18:19:11.223Z,119.78
2022-10-15T18:22:16.036Z,128.15
2022-10-15T18:25:20.688Z,116.35
2022-10-15T18:28:24.905Z,126.45
2022-10-15T18:31:33.535Z,110.03
2022-10-15T18:34:47.301Z,125.20
2022-10-15T18:37:51.902Z,119.55
2022-10-15T18:40:55.943Z,111.28
2022-10-15T18:44:03.768Z,126.63
2022-10-15T18:47:08.299Z,114.95
2022-10-15T18:50:12.599Z,119.78
2022-10-15T18:53:20.821Z,135.98
2022-10-15T18:56:33.062Z,120.88
2022-10-15T18:59:37.936Z,103.53
2022-10-15T19:02:55.682Z,132.05
2022-10-15T19:06:18.211Z,129.25
2022-10-15T19:10:08.754Z,140.45
2022-10-15T19:13:49.502Z,121.00
2022-10-15T19:17:22.607Z,130.88
2022-10-15T19:20:27.086Z,124.22
2022-10-15T19:23:33.275Z,120.53
2022-10-15T19:26:38.316Z,138.95
2022-10-15T19:29:54.436Z,146.55
2022-10-15T19:33:02.973Z,170.68
2022-10-15T19:39:54.808Z,135.68
2022-10-15T19:43:42.915Z,124.63
2022-10-15T19:47:10.141Z,120.22
2022-10-15T19:50:34.273Z,118.18
2022-10-15T19:53:46.877Z,110.45
2022-10-15T19:56:54.994Z,124.30
2022-10-15T19:59:59.623Z,123.38
2022-10-15T20:03:04.606Z,131.07
2022-10-15T20:06:09.576Z,106.35
2022-10-15T20:09:14.275Z,103.40
2022-10-15T20:12:21.257Z,111.38
2022-10-15T20:15:35.544Z,113.43
2022-10-15T20:19:31.193Z,116.82
2022-10-15T20:23:02.481Z,107.78
2022-10-15T20:26:38.444Z,101.55
2022-10-15T20:29:56.834Z,94.85
2022-10-15T20:34:32.878Z,102.00
2022-10-15T20:41:32.020Z,96.82
2022-10-15T20:44:37.075Z,87.82
2022-10-15T20:47:47.421Z,94.03
2022-10-15T20:51:09.298Z,96.38
2022-10-15T20:54:19.066Z,91.47
2022-10-15T20:57:40.177Z,86.35
2022-10-15T21:00:45.410Z,78.25
2022-10-15T21:04:08.975Z,79.75
2022-10-15T21:14:45.306Z,66.20
2022-10-15T21:18:04.846Z,71.40
2022-10-15T21:21:40.114Z,68.90
2022-10-15T21:25:01.783Z,68.40
2022-10-15T21:28:55.129Z,73.57
2022-10-15T21:44:42.988Z,61.53
2022-10-15T21:48:15.014Z,67.22
2022-10-15T21:52:09.067Z,72.32
2022-10-15T21:55:36.791Z,66.55
2022-10-15T21:59:09.513Z,68.53
2022-10-15T22:03:06.275Z,66.93
2022-10-15T22:26:26.536Z,76.13
2022-10-15T22:34:00.618Z,74.05
2022-10-15T22:49:39.200Z,71.65
2022-10-15T22:53:05.141Z,67.03
2022-10-15T22:56:29.302Z,60.28
2022-10-15T23:00:44.082Z,72.53
2022-10-15T23:04:47.741Z,57.78
2022-10-15T23:13:29.012Z,72.78
2022-10-15T23:16:53.340Z,64.50
2022-10-15T23:21:05.311Z,56.45
2022-10-15T23:25:11.873Z,59.72
2022-10-15T23:29:11.151Z,54.47
2022-10-15T23:36:59.226Z,54.80
2022-10-15T23:44:41.287Z,45.45
2022-10-15T23:49:03.828Z,50.45
2022-10-15T23:51:55.841Z,56.42
